createdAt,value
2018-11-27T00:00:00.456Z,5.93
2018-11-27T00:01:00.480Z,5.86
2018-11-27T00:02:00.507Z,5.89
2018-11-27T00:03:00.534Z,5.90
2018-11-27T00:04:00.561Z,5.91
2018-11-27T00:05:00.589Z,5.86
2018-11-27T00:06:00.615Z,5.86
2018-11-27T00:07:00.642Z,5.89
2018-11-27T00:08:00.669Z,5.85
2018-11-27T00:09:00.697Z,5.81
2018-11-27T00:10:00.723Z,5.96
2018-11-27T00:11:00.749Z,5.89
2018-11-27T00:12:00.777Z,5.91
2018-11-27T00:13:00.807Z,5.89
2018-11-27T00:14:00.831Z,5.94
2018-11-27T00:15:00.858Z,5.82
2018-11-27T00:16:00.885Z,5.91
2018-11-27T00:17:00.912Z,5.83
2018-11-27T00:18:00.941Z,5.81
2018-11-27T00:19:00.965Z,5.86
2018-11-27T00:20:00.994Z,5.82
2018-11-27T00:21:01.020Z,5.86
2018-11-27T00:22:01.046Z,5.79
2018-11-27T00:23:01.074Z,5.79
2018-11-27T00:24:01.101Z,5.83
2018-11-27T00:25:01.132Z,5.85
2018-11-27T00:26:01.160Z,5.79
2018-11-27T00:27:01.181Z,5.86
2018-11-27T00:28:01.209Z,5.85
2018-11-27T00:29:01.235Z,5.83
2018-11-27T00:30:01.263Z,5.79
2018-11-27T00:31:01.295Z,5.83
2018-11-27T00:32:01.316Z,5.79
2018-11-27T00:33:01.343Z,5.91
2018-11-27T00:34:01.370Z,5.90
2018-11-27T00:35:01.396Z,5.96
2018-11-27T00:36:01.424Z,6.04
2018-11-27T00:37:01.455Z,5.96
2018-11-27T00:38:01.476Z,6.06
2018-11-27T00:39:01.504Z,5.94
2018-11-27T00:40:01.531Z,5.91
2018-11-27T00:41:01.558Z,5.91
2018-11-27T00:42:01.585Z,5.93
2018-11-27T00:43:01.611Z,5.86
2018-11-27T00:44:01.639Z,5.79
2018-11-27T00:45:01.666Z,5.78
2018-11-27T00:46:01.692Z,5.76
2018-11-27T00:47:01.719Z,5.76
2018-11-27T00:48:01.746Z,5.68
2018-11-27T00:49:01.773Z,5.74
2018-11-27T00:50:01.800Z,5.82
2018-11-27T00:51:01.831Z,5.75
2018-11-27T00:52:01.856Z,5.76
2018-11-27T00:53:01.883Z,5.75
2018-11-27T00:54:01.908Z,5.76
2018-11-27T00:55:01.934Z,5.76
2018-11-27T00:56:01.961Z,5.72
2018-11-27T00:57:01.994Z,5.68
2018-11-27T00:58:03.518Z,5.76
2018-11-27T00:59:02.042Z,5.72
2018-11-27T01:00:02.069Z,5.58
2018-11-27T01:01:02.097Z,5.71
2018-11-27T01:02:02.123Z,5.72
2018-11-27T01:03:02.149Z,5.71
2018-11-27T01:04:02.178Z,5.71
2018-11-27T01:05:02.205Z,5.75
2018-11-27T01:06:02.230Z,5.72
2018-11-27T01:07:02.258Z,5.72
2018-11-27T01:08:02.286Z,5.67
2018-11-27T01:09:02.313Z,5.79
2018-11-27T01:10:02.340Z,5.74
2018-11-27T01:11:02.365Z,5.74
2018-11-27T01:12:02.392Z,5.71
2018-11-27T01:13:02.419Z,5.72
2018-11-27T01:14:02.445Z,5.71
2018-11-27T01:15:02.473Z,5.72
2018-11-27T01:16:02.501Z,5.83
2018-11-27T01:17:02.526Z,5.71
2018-11-27T01:18:02.554Z,5.74
2018-11-27T01:19:02.581Z,5.75
2018-11-27T01:20:02.608Z,5.67
2018-11-27T01:21:02.634Z,5.58
2018-11-27T01:22:02.660Z,5.63
2018-11-27T01:23:02.687Z,5.60
2018-11-27T01:24:02.714Z,5.65
2018-11-27T01:25:02.743Z,5.65
2018-11-27T01:26:02.768Z,5.71
2018-11-27T01:27:02.795Z,5.61
2018-11-27T01:28:02.822Z,5.74
2018-11-27T01:29:02.854Z,5.67
2018-11-27T01:30:02.875Z,5.75
2018-11-27T01:31:02.903Z,5.71
2018-11-27T01:32:02.931Z,5.76
2018-11-27T01:33:02.956Z,5.72
2018-11-27T01:34:02.982Z,5.72
2018-11-27T01:35:03.011Z,5.79
2018-11-27T01:36:03.038Z,5.81
2018-11-27T01:37:03.064Z,5.83
2018-11-27T01:38:03.090Z,5.83
2018-11-27T01:39:03.118Z,5.85
2018-11-27T01:40:03.146Z,5.85
2018-11-27T01:41:03.172Z,5.82
2018-11-27T01:42:03.197Z,5.79
2018-11-27T01:43:03.226Z,5.81
2018-11-27T01:44:03.252Z,5.90
2018-11-27T01:45:03.278Z,5.91
2018-11-27T01:46:03.304Z,5.79
2018-11-27T01:47:03.333Z,5.89
2018-11-27T01:48:03.359Z,5.82
2018-11-27T01:49:03.386Z,5.75
2018-11-27T01:50:03.412Z,5.72
2018-11-27T01:51:03.440Z,5.67
2018-11-27T01:52:03.466Z,5.71
2018-11-27T01:53:03.496Z,5.75
2018-11-27T01:54:03.520Z,5.72
2018-11-27T01:55:03.547Z,5.68
2018-11-27T01:56:03.574Z,5.76
2018-11-27T01:57:03.601Z,5.74
2018-11-27T01:58:03.630Z,5.78
2018-11-27T01:59:03.655Z,5.68
2018-11-27T02:00:03.682Z,5.65
2018-11-27T02:01:03.708Z,5.56
2018-11-27T02:02:03.734Z,5.71
2018-11-27T02:03:03.762Z,5.60
2018-11-27T02:04:03.789Z,5.65
2018-11-27T02:05:03.817Z,5.65
2018-11-27T02:06:03.842Z,5.64
2018-11-27T02:07:03.871Z,5.67
2018-11-27T02:08:03.897Z,5.64
2018-11-27T02:09:03.924Z,5.72
2018-11-27T02:10:03.951Z,5.65
2018-11-27T02:11:03.977Z,5.71
2018-11-27T02:12:04.006Z,5.74
2018-11-27T02:13:04.030Z,5.75
2018-11-27T02:14:04.058Z,5.67
2018-11-27T02:15:04.083Z,5.71
2018-11-27T02:16:04.111Z,5.74
2018-11-27T02:17:04.139Z,5.79
2018-11-27T02:18:04.164Z,5.83
2018-11-27T02:19:04.191Z,5.90
2018-11-27T02:20:04.218Z,5.79
2018-11-27T02:21:04.245Z,5.76
2018-11-27T02:22:04.271Z,5.85
2018-11-27T02:23:04.301Z,5.90
2018-11-27T02:24:04.325Z,5.91
2018-11-27T02:25:04.353Z,5.90
2018-11-27T02:26:04.379Z,5.94
2018-11-27T02:27:04.406Z,5.96
2018-11-27T02:28:04.433Z,5.94
2018-11-27T02:29:04.460Z,5.97
2018-11-27T02:30:04.492Z,5.97
2018-11-27T02:31:04.516Z,6.04
2018-11-27T02:32:04.541Z,6.06
2018-11-27T02:33:04.569Z,5.96
2018-11-27T02:34:04.593Z,6.00
2018-11-27T02:35:04.621Z,5.93
2018-11-27T02:36:04.648Z,5.86
2018-11-27T02:37:04.675Z,5.97
2018-11-27T02:38:04.701Z,6.00
2018-11-27T02:39:04.728Z,5.93
2018-11-27T02:40:04.755Z,5.86
2018-11-27T02:41:04.782Z,5.89
2018-11-27T02:42:04.808Z,5.85
2018-11-27T02:43:04.837Z,5.82
2018-11-27T02:44:04.862Z,5.75
2018-11-27T02:45:04.892Z,5.75
2018-11-27T02:46:04.915Z,5.76
2018-11-27T02:47:04.943Z,5.89
2018-11-27T02:48:04.970Z,5.89
2018-11-27T02:49:04.998Z,5.81
2018-11-27T02:50:05.023Z,5.85
2018-11-27T02:51:05.049Z,5.82
2018-11-27T02:52:05.077Z,5.85
2018-11-27T02:53:05.107Z,5.89
2018-11-27T02:54:05.129Z,5.86
2018-11-27T02:55:05.157Z,5.90
2018-11-27T02:56:05.184Z,5.99
2018-11-27T02:57:05.212Z,5.94
2018-11-27T02:58:05.238Z,6.09
2018-11-27T02:59:05.265Z,6.08
2018-11-27T03:00:05.295Z,6.00
2018-11-27T03:01:05.322Z,6.08
2018-11-27T03:02:05.345Z,6.08
2018-11-27T03:03:05.376Z,6.12
2018-11-27T03:04:05.399Z,6.01
2018-11-27T03:05:05.427Z,6.01
2018-11-27T03:06:05.454Z,5.94
2018-11-27T03:07:05.480Z,5.94
2018-11-27T03:08:05.507Z,5.86
2018-11-27T03:09:05.533Z,5.91
2018-11-27T03:10:05.562Z,5.89
2018-11-27T03:11:05.590Z,5.89
2018-11-27T03:12:05.615Z,5.96
2018-11-27T03:13:05.642Z,5.89
2018-11-27T03:14:05.668Z,5.97
2018-11-27T03:15:05.694Z,5.94
2018-11-27T03:16:05.722Z,5.97
2018-11-27T03:17:05.749Z,6.04
2018-11-27T03:18:05.778Z,6.08
2018-11-27T03:19:05.802Z,6.21
2018-11-27T03:20:05.831Z,6.06
2018-11-27T03:21:05.857Z,6.21
2018-11-27T03:22:05.884Z,6.21
2018-11-27T03:23:05.911Z,6.15
2018-11-27T03:24:05.991Z,6.28
2018-11-27T03:25:05.964Z,6.21
2018-11-27T03:26:05.990Z,6.22
2018-11-27T03:27:06.026Z,6.19
2018-11-27T03:28:06.045Z,6.17
2018-11-27T03:29:06.074Z,6.14
2018-11-27T03:30:06.098Z,6.09
2018-11-27T03:31:06.128Z,6.09
2018-11-27T03:32:06.154Z,6.04
2018-11-27T03:33:06.181Z,5.99
2018-11-27T03:34:06.204Z,5.99
2018-11-27T03:35:06.232Z,5.96
2018-11-27T03:36:06.259Z,5.97
2018-11-27T03:37:06.286Z,6.01
2018-11-27T03:38:06.313Z,5.99
2018-11-27T03:39:06.339Z,6.04
2018-11-27T03:40:06.367Z,5.99
2018-11-27T03:41:06.395Z,5.97
2018-11-27T03:42:06.419Z,5.99
2018-11-27T03:43:06.446Z,6.08
2018-11-27T03:44:06.474Z,6.04
2018-11-27T03:45:06.524Z,6.03
2018-11-27T03:46:06.526Z,6.04
2018-11-27T03:47:06.552Z,6.14
2018-11-27T03:48:06.584Z,6.14
2018-11-27T03:49:06.607Z,6.14
2018-11-27T03:50:06.633Z,6.09
2018-11-27T03:51:06.660Z,6.09
2018-11-27T03:52:06.690Z,6.06
2018-11-27T03:53:06.714Z,6.08
2018-11-27T03:54:06.741Z,6.03
2018-11-27T03:55:06.768Z,6.03
2018-11-27T03:56:06.797Z,6.01
2018-11-27T03:57:06.822Z,5.97
2018-11-27T03:58:06.849Z,6.08
2018-11-27T03:59:06.875Z,6.00
2018-11-27T04:00:06.903Z,5.93
2018-11-27T04:01:06.928Z,5.93
2018-11-27T04:02:06.954Z,5.91
2018-11-27T04:03:06.982Z,5.91
2018-11-27T04:04:10.044Z,5.93
2018-11-27T04:05:07.041Z,5.90
2018-11-27T04:06:07.063Z,5.93
2018-11-27T04:07:07.089Z,5.90
2018-11-27T04:08:07.118Z,5.94
2018-11-27T04:09:07.144Z,5.89
2018-11-27T04:10:07.170Z,5.79
2018-11-27T04:11:07.198Z,5.82
2018-11-27T04:12:07.226Z,5.83
2018-11-27T04:13:07.253Z,5.79
2018-11-27T04:14:07.279Z,5.76
2018-11-27T04:15:07.303Z,5.81
2018-11-27T04:16:07.336Z,5.82
2018-11-27T04:17:07.361Z,5.82
2018-11-27T04:18:07.386Z,5.85
2018-11-27T04:19:07.413Z,5.79
2018-11-27T04:20:07.440Z,5.75
2018-11-27T04:21:07.467Z,5.82
2018-11-27T04:22:07.493Z,5.78
2018-11-27T04:23:07.602Z,5.76
2018-11-27T04:24:07.547Z,5.86
2018-11-27T04:25:07.575Z,5.79
2018-11-27T04:26:07.600Z,5.86
2018-11-27T04:27:07.628Z,5.85
2018-11-27T04:28:07.653Z,5.82
2018-11-27T04:29:07.682Z,5.82
2018-11-27T04:30:07.709Z,5.94
2018-11-27T04:31:07.734Z,5.96
2018-11-27T04:32:07.761Z,5.90
2018-11-27T04:33:07.791Z,5.90
2018-11-27T04:34:07.818Z,5.93
2018-11-27T04:35:07.843Z,5.99
2018-11-27T04:36:07.870Z,5.97
2018-11-27T04:37:07.903Z,5.91
2018-11-27T04:38:07.944Z,5.93
2018-11-27T04:39:07.950Z,5.86
2018-11-27T04:40:07.977Z,5.96
2018-11-27T04:41:08.004Z,5.96
2018-11-27T04:42:08.031Z,5.79
2018-11-27T04:43:08.059Z,5.86
2018-11-27T04:44:08.085Z,5.82
2018-11-27T04:45:08.112Z,5.82
2018-11-27T04:46:08.139Z,5.82
2018-11-27T04:47:08.166Z,5.85
2018-11-27T04:48:08.192Z,5.82
2018-11-27T04:49:08.224Z,5.78
2018-11-27T04:50:08.245Z,5.82
2018-11-27T04:51:08.271Z,5.82
2018-11-27T04:52:08.303Z,5.83
2018-11-27T04:53:08.330Z,5.94
2018-11-27T04:54:08.353Z,5.97
2018-11-27T04:55:08.380Z,5.94
2018-11-27T04:56:08.406Z,6.00
2018-11-27T04:57:08.435Z,5.96
2018-11-27T04:58:08.461Z,6.06
2018-11-27T04:59:08.487Z,6.00
2018-11-27T05:00:08.516Z,6.12
2018-11-27T05:01:08.542Z,6.12
2018-11-27T05:02:08.572Z,6.09
2018-11-27T05:03:08.595Z,6.11
2018-11-27T05:04:08.622Z,5.97
2018-11-27T05:05:08.650Z,6.06
2018-11-27T05:06:08.674Z,6.08
2018-11-27T05:07:08.702Z,6.09
2018-11-27T05:08:08.731Z,6.11
2018-11-27T05:09:08.758Z,6.11
2018-11-27T05:10:08.783Z,6.11
2018-11-27T05:11:08.809Z,6.12
2018-11-27T05:12:08.835Z,6.17
2018-11-27T05:13:08.865Z,6.12
2018-11-27T05:14:08.903Z,6.25
2018-11-27T05:15:08.926Z,6.18
2018-11-27T05:16:08.944Z,6.28
2018-11-27T05:17:08.971Z,6.27
2018-11-27T05:18:08.999Z,6.25
2018-11-27T05:19:09.024Z,6.28
2018-11-27T05:20:09.050Z,6.28
2018-11-27T05:21:09.078Z,6.25
2018-11-27T05:22:09.104Z,6.19
2018-11-27T05:23:09.132Z,6.25
2018-11-27T05:24:09.159Z,6.22
2018-11-27T05:25:09.187Z,6.15
2018-11-27T05:26:09.212Z,6.12
2018-11-27T05:27:09.239Z,6.11
2018-11-27T05:28:09.265Z,6.03
2018-11-27T05:29:09.293Z,6.00
2018-11-27T05:30:09.319Z,6.08
2018-11-27T05:31:09.347Z,6.06
2018-11-27T05:32:09.374Z,5.93
2018-11-27T05:33:09.404Z,5.81
2018-11-27T05:34:09.428Z,5.81
2018-11-27T05:35:09.454Z,5.85
2018-11-27T05:36:09.483Z,5.97
2018-11-27T05:37:09.508Z,5.94
2018-11-27T05:38:09.534Z,5.89
2018-11-27T05:39:09.561Z,5.99
2018-11-27T05:40:09.588Z,5.91
2018-11-27T05:41:09.617Z,5.89
2018-11-27T05:42:09.641Z,5.91
2018-11-27T05:43:09.670Z,5.83
2018-11-27T05:44:09.697Z,5.81
2018-11-27T05:45:09.729Z,5.85
2018-11-27T05:46:09.749Z,5.89
2018-11-27T05:47:09.775Z,5.91
2018-11-27T05:48:09.803Z,5.86
2018-11-27T05:49:09.832Z,5.86
2018-11-27T05:50:09.856Z,5.86
2018-11-27T05:51:09.883Z,5.85
2018-11-27T05:52:09.910Z,5.83
2018-11-27T05:53:09.937Z,5.76
2018-11-27T05:54:09.964Z,5.81
2018-11-27T05:55:09.991Z,5.68
2018-11-27T05:56:10.018Z,5.75
2018-11-27T05:57:10.045Z,5.71
2018-11-27T05:58:10.070Z,5.74
2018-11-27T05:59:10.097Z,5.76
2018-11-27T06:00:10.124Z,5.79
2018-11-27T06:01:10.152Z,5.82
2018-11-27T06:02:10.177Z,5.81
2018-11-27T06:03:10.204Z,5.86
2018-11-27T06:04:10.231Z,5.85
2018-11-27T06:05:10.259Z,5.93
2018-11-27T06:06:10.285Z,5.83
2018-11-27T06:07:10.312Z,5.89
2018-11-27T06:08:10.339Z,5.89
2018-11-27T06:09:10.372Z,5.93
2018-11-27T06:10:10.391Z,5.89
2018-11-27T06:11:10.419Z,5.89
2018-11-27T06:12:10.446Z,5.90
2018-11-27T06:13:10.474Z,5.89
2018-11-27T06:14:10.501Z,5.81
2018-11-27T06:15:10.527Z,5.83
2018-11-27T06:16:10.553Z,5.79
2018-11-27T06:17:10.584Z,5.83
2018-11-27T06:18:10.614Z,5.81
2018-11-27T06:19:10.635Z,5.75
2018-11-27T06:20:10.661Z,5.76
2018-11-27T06:21:10.688Z,5.81
2018-11-27T06:22:10.716Z,5.79
2018-11-27T06:23:10.742Z,5.85
2018-11-27T06:24:10.769Z,5.76
2018-11-27T06:25:10.798Z,5.68
2018-11-27T06:26:10.822Z,5.78
2018-11-27T06:27:10.849Z,5.72
2018-11-27T06:28:10.877Z,5.71
2018-11-27T06:29:10.903Z,5.65
2018-11-27T06:30:10.934Z,5.71
2018-11-27T06:31:10.958Z,5.64
2018-11-27T06:32:10.983Z,5.68
2018-11-27T06:33:11.010Z,5.71
2018-11-27T06:34:11.037Z,5.72
2018-11-27T06:35:11.063Z,5.75
2018-11-27T06:36:11.090Z,5.72
2018-11-27T06:37:11.118Z,5.72
2018-11-27T06:38:11.144Z,5.75
2018-11-27T06:39:11.170Z,5.71
2018-11-27T06:40:11.196Z,5.64
2018-11-27T06:41:11.225Z,5.67
2018-11-27T06:42:11.250Z,5.78
2018-11-27T06:43:11.276Z,5.96
2018-11-27T06:44:11.304Z,5.90
2018-11-27T06:45:11.331Z,5.93
2018-11-27T06:46:11.357Z,6.01
2018-11-27T06:47:11.384Z,6.04
2018-11-27T06:48:11.411Z,6.08
2018-11-27T06:49:11.438Z,6.04
2018-11-27T06:50:11.467Z,6.17
2018-11-27T06:51:11.492Z,6.03
2018-11-27T06:52:11.518Z,6.09
2018-11-27T06:53:11.546Z,6.12
2018-11-27T06:54:11.571Z,6.08
2018-11-27T06:55:11.604Z,6.25
2018-11-27T06:56:11.629Z,6.21
2018-11-27T06:57:11.652Z,6.25
2018-11-27T06:58:11.679Z,6.28
2018-11-27T06:59:11.705Z,6.31
2018-11-27T07:00:12.035Z,6.18
2018-11-27T07:01:11.763Z,6.15
2018-11-27T07:02:11.785Z,6.12
2018-11-27T07:03:11.812Z,6.14
2018-11-27T07:04:11.840Z,6.06
2018-11-27T07:05:11.867Z,6.04
2018-11-27T07:06:11.892Z,6.06
2018-11-27T07:07:11.920Z,6.08
2018-11-27T07:08:11.946Z,6.01
2018-11-27T07:09:11.973Z,6.01
2018-11-27T07:10:12.000Z,6.08
2018-11-27T07:11:13.849Z,6.04
2018-11-27T07:12:12.054Z,6.03
2018-11-27T07:13:12.081Z,5.99
2018-11-27T07:14:12.107Z,5.96
2018-11-27T07:15:12.134Z,5.94
2018-11-27T07:16:12.161Z,5.97
2018-11-27T07:17:12.188Z,5.96
2018-11-27T07:18:12.212Z,5.97
2018-11-27T07:19:12.240Z,5.93
2018-11-27T07:20:12.268Z,5.97
2018-11-27T07:21:12.299Z,5.91
2018-11-27T07:22:12.319Z,5.89
2018-11-27T07:23:12.348Z,5.86
2018-11-27T07:24:12.372Z,5.93
2018-11-27T07:25:12.400Z,5.90
2018-11-27T07:26:12.426Z,5.94
2018-11-27T07:27:12.453Z,5.93
2018-11-27T07:28:12.479Z,5.91
2018-11-27T07:29:12.506Z,5.86
2018-11-27T07:30:12.535Z,6.08
2018-11-27T07:31:12.892Z,5.93
2018-11-27T07:32:12.586Z,6.00
2018-11-27T07:33:12.613Z,5.94
2018-11-27T07:34:12.639Z,5.89
2018-11-27T07:35:12.666Z,5.93
2018-11-27T07:36:12.698Z,5.96
2018-11-27T07:37:12.720Z,5.89
2018-11-27T07:38:12.747Z,5.94
2018-11-27T07:39:12.773Z,5.90
2018-11-27T07:40:12.799Z,5.94
2018-11-27T07:41:12.827Z,5.91
2018-11-27T07:42:12.862Z,5.91
2018-11-27T07:43:12.879Z,5.86
2018-11-27T07:44:12.906Z,5.97
2018-11-27T07:45:12.932Z,5.90
2018-11-27T07:46:12.960Z,6.00
2018-11-27T07:47:12.985Z,5.91
2018-11-27T07:48:13.018Z,6.01
2018-11-27T07:49:13.040Z,5.96
2018-11-27T07:50:13.065Z,5.97
2018-11-27T07:51:13.106Z,5.97
2018-11-27T07:52:13.120Z,5.91
2018-11-27T07:53:13.151Z,6.03
2018-11-27T07:54:13.174Z,5.96
2018-11-27T07:55:13.198Z,5.90
2018-11-27T07:56:13.227Z,5.93
2018-11-27T07:57:13.253Z,5.97
2018-11-27T07:58:13.279Z,5.97
2018-11-27T07:59:13.306Z,5.99
2018-11-27T08:00:13.333Z,6.11
2018-11-27T08:01:13.361Z,6.11
2018-11-27T08:02:13.388Z,6.00
2018-11-27T08:03:13.412Z,6.09
2018-11-27T08:04:13.443Z,6.08
2018-11-27T08:05:13.467Z,6.06
2018-11-27T08:06:13.493Z,6.11
2018-11-27T08:07:13.522Z,6.21
2018-11-27T08:08:13.548Z,6.21
2018-11-27T08:09:13.576Z,6.22
2018-11-27T08:10:13.601Z,6.25
2018-11-27T08:11:13.631Z,6.33
2018-11-27T08:12:13.657Z,6.40
2018-11-27T08:13:13.685Z,6.37
2018-11-27T08:14:13.709Z,6.41
2018-11-27T08:15:13.749Z,6.43
2018-11-27T08:16:13.765Z,6.38
2018-11-27T08:17:13.792Z,6.28
2018-11-27T08:18:13.817Z,6.37
2018-11-27T08:19:13.845Z,6.34
2018-11-27T08:20:13.873Z,6.30
2018-11-27T08:21:13.899Z,6.21
2018-11-27T08:22:13.926Z,6.28
2018-11-27T08:23:13.953Z,6.21
2018-11-27T08:24:13.980Z,6.19
2018-11-27T08:25:14.008Z,6.27
2018-11-27T08:26:14.035Z,6.15
2018-11-27T08:27:14.063Z,6.19
2018-11-27T08:28:14.088Z,6.18
2018-11-27T08:29:14.117Z,6.15
2018-11-27T08:30:14.143Z,6.17
2018-11-27T08:31:14.170Z,6.09
2018-11-27T08:32:14.200Z,6.11
2018-11-27T08:33:14.225Z,6.15
2018-11-27T08:34:14.251Z,6.14
2018-11-27T08:35:14.278Z,6.19
2018-11-27T08:36:14.307Z,6.22
2018-11-27T08:37:14.337Z,6.17
2018-11-27T08:38:14.363Z,6.12
2018-11-27T08:39:14.395Z,6.14
2018-11-27T08:40:14.413Z,6.14
2018-11-27T08:41:14.442Z,6.14
2018-11-27T08:42:14.469Z,6.15
2018-11-27T08:43:14.494Z,6.25
2018-11-27T08:44:14.523Z,6.14
2018-11-27T08:45:14.550Z,6.22
2018-11-27T08:46:14.579Z,6.28
2018-11-27T08:47:14.603Z,6.30
2018-11-27T08:48:14.631Z,6.18
2018-11-27T08:49:14.657Z,6.28
2018-11-27T08:50:14.686Z,6.25
2018-11-27T08:51:14.711Z,6.27
2018-11-27T08:52:14.739Z,6.33
2018-11-27T08:53:14.767Z,6.38
2018-11-27T08:54:14.794Z,6.40
2018-11-27T08:55:14.820Z,6.43
2018-11-27T08:56:14.848Z,6.46
2018-11-27T08:57:14.876Z,6.49
2018-11-27T08:58:14.903Z,6.44
2018-11-27T08:59:14.930Z,6.49
2018-11-27T09:00:14.957Z,6.46
2018-11-27T09:01:14.985Z,6.49
2018-11-27T09:02:15.012Z,6.49
2018-11-27T09:03:15.039Z,6.52
2018-11-27T09:04:15.067Z,6.55
2018-11-27T09:05:15.096Z,6.70
2018-11-27T09:06:15.120Z,6.73
2018-11-27T09:07:15.148Z,6.64
2018-11-27T09:08:15.176Z,6.70
2018-11-27T09:09:15.204Z,6.70
2018-11-27T09:10:15.231Z,6.70
2018-11-27T09:11:15.257Z,6.70
2018-11-27T09:12:15.285Z,6.73
2018-11-27T09:13:15.575Z,6.64
2018-11-27T09:14:15.340Z,6.64
2018-11-27T09:15:15.414Z,6.66
2018-11-27T09:16:15.395Z,6.62
2018-11-27T09:17:15.422Z,6.64
2018-11-27T09:18:15.449Z,6.71
2018-11-27T09:19:15.477Z,6.69
2018-11-27T09:20:15.504Z,6.77
2018-11-27T09:21:15.533Z,6.88
2018-11-27T09:22:15.559Z,6.88
2018-11-27T09:23:15.587Z,7.07
2018-11-27T09:24:15.617Z,7.05
2018-11-27T09:25:15.641Z,7.03
2018-11-27T09:26:15.672Z,7.02
2018-11-27T09:27:15.697Z,6.88
2018-11-27T09:28:15.728Z,6.85
2018-11-27T09:29:15.751Z,6.99
2018-11-27T09:30:15.780Z,7.02
2018-11-27T09:31:15.808Z,6.97
2018-11-27T09:32:15.835Z,6.88
2018-11-27T09:33:15.863Z,7.05
2018-11-27T09:34:15.889Z,7.02
2018-11-27T09:35:15.920Z,7.05
2018-11-27T09:36:15.949Z,6.95
2018-11-27T09:37:15.975Z,6.94
2018-11-27T09:38:16.003Z,6.99
2018-11-27T09:39:16.029Z,6.99
2018-11-27T09:40:16.059Z,6.98
2018-11-27T09:41:16.086Z,6.88
2018-11-27T09:42:16.112Z,6.98
2018-11-27T09:43:16.139Z,6.97
2018-11-27T09:44:16.167Z,6.94
2018-11-27T09:45:16.195Z,6.94
2018-11-27T09:46:16.222Z,7.05
2018-11-27T09:47:16.249Z,7.02
2018-11-27T09:48:16.278Z,7.05
2018-11-27T09:49:16.306Z,6.97
2018-11-27T09:50:16.333Z,6.97
2018-11-27T09:51:16.361Z,6.99
2018-11-27T09:52:16.392Z,7.06
2018-11-27T09:53:16.417Z,7.05
2018-11-27T09:54:16.444Z,7.16
2018-11-27T09:55:16.472Z,7.13
2018-11-27T09:56:16.499Z,7.15
2018-11-27T09:57:16.527Z,7.20
2018-11-27T09:58:16.554Z,7.17
2018-11-27T09:59:16.581Z,7.15
2018-11-27T10:00:16.610Z,7.28
2018-11-27T10:01:16.638Z,7.24
2018-11-27T10:02:16.664Z,7.15
2018-11-27T10:03:16.693Z,7.31
2018-11-27T10:04:16.725Z,7.32
2018-11-27T10:05:16.749Z,7.31
2018-11-27T10:06:16.781Z,7.31
2018-11-27T10:07:17.458Z,7.31
2018-11-27T10:08:16.835Z,7.25
2018-11-27T10:09:16.860Z,7.25
2018-11-27T10:10:16.888Z,7.31
2018-11-27T10:11:16.915Z,7.24
2018-11-27T10:12:16.944Z,7.39
2018-11-27T10:13:16.972Z,7.34
2018-11-27T10:14:17.018Z,7.30
2018-11-27T10:15:17.028Z,7.24
2018-11-27T10:16:17.057Z,7.28
2018-11-27T10:17:17.084Z,7.31
2018-11-27T10:18:17.112Z,7.40
2018-11-27T10:19:17.139Z,7.43
2018-11-27T10:20:17.169Z,7.49
2018-11-27T10:21:17.194Z,7.49
2018-11-27T10:22:17.221Z,7.48
2018-11-27T10:23:17.249Z,7.43
2018-11-27T10:24:17.276Z,7.46
2018-11-27T10:25:17.307Z,7.61
2018-11-27T10:26:17.333Z,7.52
2018-11-27T10:27:17.360Z,7.49
2018-11-27T10:28:17.389Z,7.50
2018-11-27T10:29:17.417Z,7.43
2018-11-27T10:30:17.444Z,7.40
2018-11-27T10:31:17.473Z,7.35
2018-11-27T10:32:17.500Z,7.42
2018-11-27T10:33:17.529Z,7.42
2018-11-27T10:34:17.594Z,7.45
2018-11-27T10:35:17.584Z,7.50
2018-11-27T10:36:17.613Z,7.46
2018-11-27T10:37:17.640Z,7.60
2018-11-27T10:38:17.668Z,7.61
2018-11-27T10:39:17.695Z,7.67
2018-11-27T10:40:17.723Z,7.71
2018-11-27T10:41:17.753Z,7.61
2018-11-27T10:42:17.777Z,7.61
2018-11-27T10:43:19.885Z,7.68
2018-11-27T10:44:17.835Z,7.63
2018-11-27T10:45:17.865Z,7.49
2018-11-27T10:46:17.890Z,7.48
2018-11-27T10:47:17.918Z,7.50
2018-11-27T10:48:17.946Z,7.61
2018-11-27T10:49:17.975Z,7.48
2018-11-27T10:50:18.003Z,7.45
2018-11-27T10:51:18.031Z,7.37
2018-11-27T10:52:18.059Z,7.48
2018-11-27T10:53:18.085Z,7.52
2018-11-27T10:54:18.116Z,7.48
2018-11-27T10:55:18.157Z,7.58
2018-11-27T10:56:18.170Z,7.58
2018-11-27T10:57:18.198Z,7.60
2018-11-27T10:58:18.224Z,7.67
2018-11-27T10:59:18.252Z,7.69
2018-11-27T11:00:18.281Z,7.74
2018-11-27T11:01:18.315Z,7.69
2018-11-27T11:02:18.335Z,7.67
2018-11-27T11:03:18.362Z,7.55
2018-11-27T11:04:18.392Z,7.52
2018-11-27T11:05:18.419Z,7.43
2018-11-27T11:06:18.448Z,7.39
2018-11-27T11:07:18.478Z,7.43
2018-11-27T11:08:18.502Z,7.46
2018-11-27T11:09:18.530Z,7.48
2018-11-27T11:10:18.559Z,7.48
2018-11-27T11:11:18.586Z,7.52
2018-11-27T11:12:18.618Z,7.46
2018-11-27T11:13:18.642Z,7.48
2018-11-27T11:14:18.671Z,7.39
2018-11-27T11:15:18.697Z,7.45
2018-11-27T11:16:18.726Z,7.37
2018-11-27T11:17:18.753Z,7.35
2018-11-27T11:18:18.782Z,7.42
2018-11-27T11:19:18.812Z,7.46
2018-11-27T11:20:18.836Z,7.45
2018-11-27T11:21:18.867Z,7.48
2018-11-27T11:22:18.891Z,7.46
2018-11-27T11:23:18.919Z,7.46
2018-11-27T11:24:18.947Z,7.28
2018-11-27T11:25:18.976Z,7.27
2018-11-27T11:26:19.002Z,7.31
2018-11-27T11:27:19.031Z,7.23
2018-11-27T11:28:19.059Z,7.21
2018-11-27T11:29:19.085Z,7.24
2018-11-27T11:30:19.113Z,7.27
2018-11-27T11:31:19.140Z,7.28
2018-11-27T11:32:19.168Z,7.39
2018-11-27T11:33:19.197Z,7.40
2018-11-27T11:34:19.223Z,7.43
2018-11-27T11:35:19.251Z,7.45
2018-11-27T11:36:19.280Z,7.48
2018-11-27T11:37:19.318Z,7.45
2018-11-27T11:38:19.334Z,7.46
2018-11-27T11:39:19.363Z,7.50
2018-11-27T11:40:19.392Z,7.46
2018-11-27T11:41:19.419Z,7.49
2018-11-27T11:42:19.446Z,7.52
2018-11-27T11:43:19.474Z,7.46
2018-11-27T11:44:19.501Z,7.35
2018-11-27T11:45:19.528Z,7.13
2018-11-27T11:46:19.555Z,7.27
2018-11-27T11:47:19.586Z,7.17
2018-11-27T11:48:19.612Z,7.23
2018-11-27T11:49:19.640Z,7.16
2018-11-27T11:50:19.666Z,7.23
2018-11-27T11:51:19.697Z,7.15
2018-11-27T11:52:19.724Z,7.13
2018-11-27T11:53:19.749Z,7.27
2018-11-27T11:54:19.779Z,7.03
2018-11-27T11:55:19.802Z,7.06
2018-11-27T11:56:19.832Z,7.10
2018-11-27T11:57:19.859Z,7.06
2018-11-27T11:58:19.887Z,6.99
2018-11-27T11:59:19.914Z,6.97
2018-11-27T12:00:19.943Z,6.99
2018-11-27T12:01:19.969Z,6.89
2018-11-27T12:02:19.995Z,6.88
2018-11-27T12:03:20.024Z,6.85
2018-11-27T12:04:20.052Z,6.91
2018-11-27T12:05:24.885Z,7.05
2018-11-27T12:06:20.106Z,7.13
2018-11-27T12:07:20.134Z,6.99
2018-11-27T12:08:20.161Z,7.03
2018-11-27T12:09:20.189Z,7.15
2018-11-27T12:10:20.216Z,7.20
2018-11-27T12:11:20.244Z,7.27
2018-11-27T12:12:20.272Z,7.24
2018-11-27T12:13:20.300Z,7.21
2018-11-27T12:14:20.326Z,7.12
2018-11-27T12:15:20.354Z,7.21
2018-11-27T12:16:20.381Z,7.20
2018-11-27T12:17:20.409Z,7.03
2018-11-27T12:18:20.436Z,7.07
2018-11-27T12:19:20.465Z,7.05
2018-11-27T12:20:20.492Z,7.16
2018-11-27T12:21:20.519Z,7.07
2018-11-27T12:22:20.546Z,7.16
2018-11-27T12:23:20.576Z,7.10
2018-11-27T12:24:20.601Z,7.17
2018-11-27T12:25:24.116Z,7.20
2018-11-27T12:26:20.657Z,7.25
2018-11-27T12:27:20.685Z,7.27
2018-11-27T12:28:20.712Z,7.30
2018-11-27T12:29:20.739Z,7.32
2018-11-27T12:30:20.768Z,7.24
2018-11-27T12:31:20.793Z,7.23
2018-11-27T12:32:20.822Z,7.27
2018-11-27T12:33:20.851Z,7.28
2018-11-27T12:34:20.878Z,7.30
2018-11-27T12:35:20.904Z,7.21
2018-11-27T12:36:20.932Z,7.27
2018-11-27T12:37:20.960Z,7.32
2018-11-27T12:38:20.986Z,7.17
2018-11-27T12:39:21.014Z,7.13
2018-11-27T12:40:21.046Z,7.17
2018-11-27T12:41:21.070Z,7.17
2018-11-27T12:42:21.097Z,7.17
2018-11-27T12:43:21.124Z,7.17
2018-11-27T12:44:21.154Z,7.12
2018-11-27T12:45:21.184Z,7.13
2018-11-27T12:46:21.207Z,7.17
2018-11-27T12:47:21.234Z,7.16
2018-11-27T12:48:21.263Z,7.17
2018-11-27T12:49:21.291Z,7.20
2018-11-27T12:50:21.372Z,7.28
2018-11-27T12:51:21.351Z,7.23
2018-11-27T12:52:21.373Z,7.34
2018-11-27T12:53:21.401Z,7.30
2018-11-27T12:54:21.427Z,7.31
2018-11-27T12:55:21.457Z,7.35
2018-11-27T12:56:21.499Z,7.48
2018-11-27T12:57:21.511Z,7.50
2018-11-27T12:58:21.539Z,7.69
2018-11-27T12:59:21.567Z,7.60
2018-11-27T13:00:21.658Z,7.60
2018-11-27T13:01:21.621Z,7.75
2018-11-27T13:02:21.648Z,7.79
2018-11-27T13:03:21.675Z,7.67
2018-11-27T13:04:21.704Z,7.80
2018-11-27T13:05:21.731Z,7.75
2018-11-27T13:06:21.760Z,7.77
2018-11-27T13:07:21.786Z,7.68
2018-11-27T13:08:21.813Z,7.82
2018-11-27T13:09:21.843Z,7.69
2018-11-27T13:10:21.869Z,7.79
2018-11-27T13:11:21.896Z,7.77
2018-11-27T13:12:21.924Z,7.89
2018-11-27T13:13:21.952Z,7.87
2018-11-27T13:14:21.980Z,7.79
2018-11-27T13:15:22.007Z,7.75
2018-11-27T13:16:22.035Z,7.67
2018-11-27T13:17:22.063Z,7.61
2018-11-27T13:18:22.090Z,7.63